Terminal Aerodrome Forecast
Issued by NWS Cleveland, OH

Home | Current Version | Previous Version | Graphics & Text | Print | Product List | Glossary On
Versions: 1 2 3 4 5 6 7 8 9 10 11 12 13 14 15 16 17 18 19
970
FTUS41 KCLE 280539
TAFCAK
TAF
KCAK 280539Z 2806/2906 05008KT P6SM OVC100
      TEMPO 2807/2808 -SHRA BKN040
     FM280900 06012KT 6SM -SHRA BR OVC025
     FM281500 07010KT P6SM OVC008
     FM290200 03006KT 3SM BR VCSH OVC007=

USA.gov is the U.S. government's official web portal to all federal, state and local government web resources and services.